createdAt,value
2018-03-14T00:00:11.398Z,2.08
2018-03-14T00:00:47.418Z,1.44
2018-03-14T00:01:22.859Z,4.56
2018-03-14T00:01:57.984Z,5.60
2018-03-14T00:02:33.499Z,4.16
2018-03-14T00:03:08.810Z,5.44
2018-03-14T00:03:44.060Z,4.64
2018-03-14T00:04:19.249Z,2.96
2018-03-14T00:04:54.608Z,6.16
2018-03-14T00:05:30.312Z,3.92
2018-03-14T00:06:05.742Z,3.20
2018-03-14T00:06:41.136Z,3.68
2018-03-14T00:07:16.602Z,4.16
2018-03-14T00:07:51.742Z,4.56
2018-03-14T00:08:27.021Z,7.52
2018-03-14T00:09:03.051Z,2.24
2018-03-14T00:09:38.349Z,3.20
2018-03-14T00:10:13.972Z,2.64
2018-03-14T00:10:49.366Z,4.88
2018-03-14T00:11:24.927Z,4.88
2018-03-14T00:12:00.569Z,4.72
2018-03-14T00:12:35.888Z,3.12
2018-03-14T00:13:11.128Z,3.92
2018-03-14T00:13:46.636Z,5.52
2018-03-14T00:14:22.168Z,3.12
2018-03-14T00:14:57.577Z,6.00
2018-03-14T00:15:33.001Z,1.92
2018-03-14T00:16:08.393Z,1.84
2018-03-14T00:16:43.364Z,5.36
2018-03-14T00:17:18.789Z,4.72
2018-03-14T00:17:54.204Z,4.96
2018-03-14T00:18:29.905Z,5.20
2018-03-14T00:19:05.335Z,3.60
2018-03-14T00:19:40.797Z,0.96
2018-03-14T00:20:16.447Z,4.40
2018-03-14T00:20:51.815Z,4.80
2018-03-14T00:21:27.295Z,5.20
2018-03-14T00:22:02.716Z,2.08
2018-03-14T00:22:38.256Z,10.08
2018-03-14T00:23:13.963Z,7.20
2018-03-14T00:23:49.400Z,3.84
2018-03-14T00:24:24.746Z,6.80
2018-03-14T00:25:00.135Z,2.64
2018-03-14T00:25:35.407Z,3.28
2018-03-14T00:26:10.526Z,6.80
2018-03-14T00:26:45.842Z,3.84
2018-03-14T00:27:21.310Z,4.00
2018-03-14T00:27:56.722Z,4.08
2018-03-14T00:28:32.186Z,3.36
2018-03-14T00:29:07.501Z,5.44
2018-03-14T00:29:42.946Z,5.36
2018-03-14T00:30:18.465Z,5.52
2018-03-14T00:30:54.183Z,5.12
2018-03-14T00:31:29.646Z,4.64
2018-03-14T00:32:05.111Z,2.88
2018-03-14T00:32:40.418Z,4.80
2018-03-14T00:33:15.710Z,7.12
2018-03-14T00:33:51.162Z,6.08
2018-03-14T00:34:26.489Z,5.60
2018-03-14T00:35:01.750Z,6.16
2018-03-14T00:35:37.256Z,4.56
2018-03-14T00:36:12.852Z,3.36
2018-03-14T00:36:48.245Z,3.20
2018-03-14T00:37:23.521Z,2.16
2018-03-14T00:37:58.775Z,1.68
2018-03-14T00:38:34.098Z,3.52
2018-03-14T00:39:09.534Z,2.56
2018-03-14T00:39:44.836Z,0.80
2018-03-14T00:40:20.277Z,1.60
2018-03-14T00:40:55.569Z,2.00
2018-03-14T00:41:31.109Z,1.84
2018-03-14T00:42:06.461Z,1.36
2018-03-14T00:42:41.592Z,2.64
2018-03-14T00:43:16.822Z,2.72
2018-03-14T00:43:52.119Z,1.44
2018-03-14T00:44:27.667Z,0.40
2018-03-14T00:45:03.179Z,5.20
2018-03-14T00:45:40.518Z,0.64
2018-03-14T00:46:15.745Z,1.84
2018-03-14T00:46:51.095Z,5.68
2018-03-14T00:47:26.313Z,3.68
2018-03-14T00:48:01.849Z,4.64
2018-03-14T00:48:37.168Z,5.52
2018-03-14T00:49:12.527Z,3.44
2018-03-14T00:49:47.976Z,2.40
2018-03-14T00:50:23.260Z,4.56
2018-03-14T00:50:58.629Z,3.84
2018-03-14T00:51:33.694Z,4.96
2018-03-14T00:52:08.961Z,4.64
2018-03-14T00:52:44.479Z,3.84
2018-03-14T00:53:19.932Z,4.64
2018-03-14T00:53:55.248Z,4.48
2018-03-14T00:54:30.596Z,3.28
2018-03-14T00:55:05.694Z,4.40
2018-03-14T00:55:41.362Z,4.08
2018-03-14T00:56:16.701Z,2.72
2018-03-14T00:56:52.276Z,1.52
2018-03-14T00:57:27.706Z,2.48
2018-03-14T00:58:03.111Z,3.44
2018-03-14T00:58:38.858Z,3.28
2018-03-14T00:59:14.166Z,1.84
2018-03-14T00:59:49.390Z,2.40
2018-03-14T01:00:24.782Z,2.88
2018-03-14T01:01:00.412Z,0.56
2018-03-14T01:01:35.712Z,1.04
2018-03-14T01:02:11.282Z,2.56
2018-03-14T01:02:47.330Z,0.56
2018-03-14T01:03:22.737Z,2.40
2018-03-14T01:03:58.055Z,1.76
2018-03-14T01:04:33.461Z,0.24
2018-03-14T01:05:09.095Z,1.68
2018-03-14T01:05:44.411Z,4.32
2018-03-14T01:06:19.532Z,2.48
2018-03-14T01:06:54.800Z,1.52
2018-03-14T01:07:30.276Z,2.00
2018-03-14T01:08:05.643Z,6.24
2018-03-14T01:08:40.848Z,5.52
2018-03-14T01:09:16.180Z,5.44
2018-03-14T01:09:51.715Z,5.36
2018-03-14T01:10:27.064Z,1.92
2018-03-14T01:11:02.710Z,2.72
2018-03-14T01:11:38.235Z,6.08
2018-03-14T01:12:13.901Z,6.00
2018-03-14T01:12:49.287Z,2.96
2018-03-14T01:13:24.597Z,2.56
2018-03-14T01:14:00.010Z,6.16
2018-03-14T01:14:35.248Z,2.32
2018-03-14T01:15:10.634Z,6.40
2018-03-14T01:15:46.881Z,4.48
2018-03-14T01:16:22.105Z,7.92
2018-03-14T01:16:57.164Z,8.96
2018-03-14T01:17:32.760Z,4.72
2018-03-14T01:18:08.389Z,2.24
2018-03-14T01:18:44.151Z,3.68
2018-03-14T01:19:19.308Z,0.40
2018-03-14T01:19:54.631Z,2.56
2018-03-14T01:20:29.966Z,1.20
2018-03-14T01:21:05.208Z,8.00
2018-03-14T01:21:40.720Z,4.72
2018-03-14T01:22:16.292Z,5.52
2018-03-14T01:22:51.386Z,4.72
2018-03-14T01:23:26.705Z,4.48
2018-03-14T01:24:02.233Z,2.96
2018-03-14T01:24:37.423Z,3.76
2018-03-14T01:25:12.750Z,3.44
2018-03-14T01:25:48.220Z,2.32
2018-03-14T01:26:23.540Z,3.20
2018-03-14T01:26:59.006Z,1.76
2018-03-14T01:27:34.429Z,2.08
2018-03-14T01:28:09.844Z,2.48
2018-03-14T01:28:45.280Z,2.40
2018-03-14T01:29:20.667Z,0.24
2018-03-14T01:29:55.898Z,0.16
2018-03-14T01:30:31.222Z,1.44
2018-03-14T01:31:06.761Z,3.36
2018-03-14T01:31:42.161Z,2.48
2018-03-14T01:32:17.531Z,1.20
2018-03-14T01:32:53.386Z,3.20
2018-03-14T01:33:28.579Z,3.60
2018-03-14T01:34:04.011Z,0.48
2018-03-14T01:34:39.416Z,0.72
2018-03-14T01:35:14.646Z,2.32
2018-03-14T01:35:49.950Z,2.16
2018-03-14T01:36:25.483Z,2.24
2018-03-14T01:37:00.632Z,2.08
2018-03-14T01:37:36.188Z,2.80
2018-03-14T01:38:11.830Z,0.48
2018-03-14T01:38:47.176Z,2.40
2018-03-14T01:39:22.608Z,1.44
2018-03-14T01:39:58.133Z,2.96
2018-03-14T01:40:33.446Z,2.48
2018-03-14T01:41:08.749Z,1.92
2018-03-14T01:41:44.160Z,5.04
2018-03-14T01:42:19.525Z,2.24
2018-03-14T01:42:54.796Z,3.84
2018-03-14T01:43:30.143Z,5.68
2018-03-14T01:44:05.591Z,4.00
2018-03-14T01:44:41.402Z,6.24
2018-03-14T01:45:16.864Z,5.12
2018-03-14T01:45:52.388Z,6.08
2018-03-14T01:46:27.822Z,5.36
2018-03-14T01:47:03.263Z,7.92
2018-03-14T01:47:38.644Z,11.29
2018-03-14T01:48:14.084Z,3.44
2018-03-14T01:48:49.810Z,1.52
2018-03-14T01:49:25.292Z,3.20
2018-03-14T01:50:00.580Z,3.84
2018-03-14T01:50:36.003Z,3.92
2018-03-14T01:51:11.642Z,1.28
2018-03-14T01:51:47.061Z,4.72
2018-03-14T01:52:22.448Z,2.32
2018-03-14T01:52:57.644Z,5.60
2018-03-14T01:53:33.174Z,6.32
2018-03-14T01:54:08.369Z,10.65
2018-03-14T01:54:45.955Z,6.24
2018-03-14T01:55:21.310Z,3.84
2018-03-14T01:55:56.533Z,0.32
2018-03-14T01:56:31.938Z,2.16
2018-03-14T01:57:07.370Z,0.40
2018-03-14T01:57:42.752Z,1.28
2018-03-14T01:58:18.012Z,3.36
2018-03-14T01:58:53.658Z,5.36
2018-03-14T01:59:29.067Z,4.00
2018-03-14T02:00:04.367Z,3.52
2018-03-14T02:00:41.428Z,6.64
2018-03-14T02:01:17.063Z,1.04
2018-03-14T02:01:52.501Z,5.84
2018-03-14T02:02:27.849Z,4.80
2018-03-14T02:03:04.508Z,0.72
2018-03-14T02:03:39.933Z,5.20
2018-03-14T02:04:15.644Z,4.64
2018-03-14T02:04:51.294Z,8.40
2018-03-14T02:05:26.531Z,2.56
2018-03-14T02:06:01.964Z,8.16
2018-03-14T02:06:37.488Z,8.16
2018-03-14T02:07:12.405Z,10.08
2018-03-14T02:07:47.755Z,6.16
2018-03-14T02:08:23.424Z,5.44
2018-03-14T02:08:58.600Z,9.04
2018-03-14T02:09:33.729Z,5.92
2018-03-14T02:10:09.029Z,1.92
2018-03-14T02:10:45.266Z,5.44
2018-03-14T02:11:20.408Z,12.17
2018-03-14T02:11:55.750Z,4.08
2018-03-14T02:12:31.158Z,3.76
2018-03-14T02:13:07.795Z,2.08
2018-03-14T02:13:43.123Z,4.88
2018-03-14T02:14:18.379Z,5.60
2018-03-14T02:14:54.606Z,6.64
2018-03-14T02:15:30.205Z,2.88
2018-03-14T02:16:07.228Z,3.36
2018-03-14T02:16:42.625Z,7.28
2018-03-14T02:17:18.269Z,2.56
2018-03-14T02:17:53.619Z,4.80
2018-03-14T02:18:29.088Z,2.96
2018-03-14T02:19:04.625Z,4.00
2018-03-14T02:19:39.978Z,5.36
2018-03-14T02:20:15.498Z,4.16
2018-03-14T02:20:50.738Z,4.40
2018-03-14T02:21:26.169Z,4.08
2018-03-14T02:22:01.511Z,4.00
2018-03-14T02:22:36.932Z,2.80
2018-03-14T02:23:12.218Z,1.92
2018-03-14T02:23:47.471Z,5.36
2018-03-14T02:24:23.095Z,3.36
2018-03-14T02:24:58.434Z,6.08
2018-03-14T02:25:33.729Z,2.56
2018-03-14T02:26:12.177Z,1.92
2018-03-14T02:26:48.017Z,2.80
2018-03-14T02:27:23.391Z,1.60
2018-03-14T02:28:02.440Z,3.44
2018-03-14T02:28:38.462Z,5.28
2018-03-14T02:29:14.028Z,4.48
2018-03-14T02:29:49.956Z,3.36
2018-03-14T02:30:25.386Z,3.36
2018-03-14T02:31:00.676Z,0.48
2018-03-14T02:31:37.234Z,2.56
2018-03-14T02:32:12.675Z,3.52
2018-03-14T02:32:49.181Z,3.28
2018-03-14T02:33:24.624Z,1.04
2018-03-14T02:34:00.467Z,1.20
2018-03-14T02:34:35.831Z,1.36
2018-03-14T02:35:11.222Z,1.36
2018-03-14T02:35:47.276Z,0.88
2018-03-14T02:36:22.776Z,0.08
2018-03-14T02:36:58.457Z,1.60
2018-03-14T02:37:33.789Z,1.44
2018-03-14T02:38:09.826Z,2.00
2018-03-14T02:38:45.234Z,0.48
2018-03-14T02:39:20.556Z,0.40
2018-03-14T02:39:56.094Z,1.68
2018-03-14T02:40:31.300Z,0.56
2018-03-14T02:41:06.623Z,0.72
2018-03-14T02:41:42.416Z,1.20
2018-03-14T02:42:17.861Z,1.76
2018-03-14T02:42:53.160Z,0.56
2018-03-14T02:43:28.576Z,0.16
2018-03-14T02:44:03.838Z,0.88
2018-03-14T02:44:39.492Z,0.80
2018-03-14T02:45:15.047Z,1.20
2018-03-14T02:45:50.433Z,1.92
2018-03-14T02:46:25.983Z,5.44
2018-03-14T02:47:05.589Z,0.24
2018-03-14T02:47:41.039Z,0.64
2018-03-14T02:48:16.567Z,1.52
2018-03-14T02:48:52.224Z,0.88
2018-03-14T02:49:27.884Z,0.40
2018-03-14T02:50:03.078Z,3.04
2018-03-14T02:50:38.506Z,0.88
2018-03-14T02:51:14.415Z,1.28
2018-03-14T02:51:49.751Z,2.96
2018-03-14T02:52:25.291Z,2.00
2018-03-14T02:53:00.958Z,0.32
2018-03-14T02:53:36.480Z,1.12
2018-03-14T02:54:12.091Z,0.32
2018-03-14T02:54:47.783Z,0.80
2018-03-14T02:55:23.131Z,0.08
2018-03-14T02:55:58.444Z,1.28
2018-03-14T02:56:33.790Z,2.48
2018-03-14T02:57:09.260Z,4.72
2018-03-14T02:57:45.226Z,0.80
2018-03-14T02:58:20.512Z,0.56
2018-03-14T02:58:55.866Z,2.32
2018-03-14T02:59:31.020Z,0.24
2018-03-14T03:00:06.479Z,1.60
2018-03-14T03:00:45.832Z,2.08
2018-03-14T03:01:21.240Z,0.32
2018-03-14T03:01:57.082Z,0.48
2018-03-14T03:02:32.523Z,0.72
2018-03-14T03:03:07.840Z,1.52
2018-03-14T03:03:43.222Z,0.88
2018-03-14T03:04:18.384Z,2.64
2018-03-14T03:04:54.136Z,0.48
2018-03-14T03:05:29.596Z,0.72
2018-03-14T03:06:05.041Z,1.12
2018-03-14T03:06:41.651Z,1.92
2018-03-14T03:07:16.940Z,1.36
2018-03-14T03:07:53.855Z,0.40
2018-03-14T03:08:29.149Z,2.16
2018-03-14T03:09:04.543Z,2.40
2018-03-14T03:09:41.076Z,4.08
2018-03-14T03:10:16.447Z,2.96
2018-03-14T03:10:51.870Z,4.40
2018-03-14T03:11:27.310Z,5.52
2018-03-14T03:12:02.741Z,4.72
2018-03-14T03:12:38.340Z,0.80
2018-03-14T03:13:14.073Z,1.84
2018-03-14T03:13:49.530Z,2.00
2018-03-14T03:14:25.067Z,2.96
2018-03-14T03:15:00.467Z,2.16
2018-03-14T03:15:36.136Z,0.72
2018-03-14T03:16:12.511Z,3.36
2018-03-14T03:16:48.107Z,3.20
2018-03-14T03:17:23.456Z,4.96
2018-03-14T03:17:58.953Z,3.12
2018-03-14T03:18:34.392Z,3.20
2018-03-14T03:19:09.749Z,1.52
2018-03-14T03:19:45.103Z,1.84
2018-03-14T03:20:20.630Z,2.24
2018-03-14T03:21:00.963Z,3.20
2018-03-14T03:21:36.400Z,2.40
2018-03-14T03:22:12.240Z,3.60
2018-03-14T03:22:48.041Z,3.44
2018-03-14T03:23:23.514Z,5.44
2018-03-14T03:23:58.810Z,3.04
2018-03-14T03:24:34.401Z,5.44
2018-03-14T03:25:10.091Z,3.52
2018-03-14T03:25:48.440Z,2.32
2018-03-14T03:26:24.611Z,0.72
2018-03-14T03:27:00.865Z,0.88
2018-03-14T03:27:36.113Z,4.40
2018-03-14T03:28:11.505Z,3.60
2018-03-14T03:28:46.894Z,2.96
2018-03-14T03:29:22.423Z,3.52
2018-03-14T03:29:57.982Z,3.84
2018-03-14T03:30:33.447Z,4.64
2018-03-14T03:31:09.159Z,6.24
2018-03-14T03:31:44.512Z,4.88
2018-03-14T03:32:20.171Z,5.28
2018-03-14T03:32:55.194Z,4.32
2018-03-14T03:33:30.630Z,3.76
2018-03-14T03:34:06.132Z,4.40
2018-03-14T03:34:41.877Z,3.52
2018-03-14T03:35:17.277Z,2.72
2018-03-14T03:35:54.207Z,4.08
2018-03-14T03:36:29.495Z,2.88
2018-03-14T03:37:05.003Z,3.68
2018-03-14T03:37:41.405Z,2.16
2018-03-14T03:38:16.790Z,4.72
2018-03-14T03:38:54.111Z,2.80
2018-03-14T03:39:29.367Z,2.80
2018-03-14T03:40:04.581Z,2.80
2018-03-14T03:40:40.443Z,5.36
2018-03-14T03:41:15.793Z,3.44
2018-03-14T03:41:51.243Z,4.08
2018-03-14T03:42:29.494Z,4.24
2018-03-14T03:43:04.940Z,3.44
2018-03-14T03:43:40.200Z,2.24
2018-03-14T03:44:15.540Z,2.48
2018-03-14T03:44:52.377Z,2.08
2018-03-14T03:45:28.707Z,2.16
2018-03-14T03:46:04.082Z,1.52
2018-03-14T03:46:39.700Z,1.20
2018-03-14T03:47:15.040Z,2.80
2018-03-14T03:47:53.414Z,4.88
2018-03-14T03:48:28.929Z,0.56
2018-03-14T03:49:04.274Z,1.52
2018-03-14T03:49:40.118Z,2.16
2018-03-14T03:50:15.376Z,4.40
2018-03-14T03:50:52.105Z,2.40
2018-03-14T03:51:27.467Z,1.84
2018-03-14T03:52:02.817Z,1.68
2018-03-14T03:52:38.468Z,1.84
2018-03-14T03:53:13.840Z,0.56
2018-03-14T03:53:49.471Z,0.00
2018-03-14T03:54:24.649Z,0.00
2018-03-14T03:55:00.005Z,0.00
2018-03-14T03:55:35.492Z,0.88
2018-03-14T03:56:10.786Z,4.08
2018-03-14T03:56:46.362Z,5.20
2018-03-14T03:57:21.804Z,2.00
2018-03-14T03:57:58.886Z,0.96
2018-03-14T03:58:34.146Z,4.00
2018-03-14T03:59:09.708Z,1.68
2018-03-14T03:59:45.188Z,0.08
2018-03-14T04:00:20.797Z,2.80
2018-03-14T04:01:00.179Z,0.96
2018-03-14T04:01:35.617Z,0.08
2018-03-14T04:02:11.048Z,2.72
2018-03-14T04:02:46.500Z,1.68
2018-03-14T04:03:22.200Z,6.24
2018-03-14T04:03:57.525Z,3.92
2018-03-14T04:04:33.100Z,2.64
2018-03-14T04:05:09.544Z,5.60
2018-03-14T04:05:45.567Z,3.68
2018-03-14T04:06:20.930Z,0.56
2018-03-14T04:06:56.368Z,0.24
2018-03-14T04:07:32.065Z,1.60
2018-03-14T04:08:07.629Z,3.36
2018-03-14T04:08:45.484Z,2.24
2018-03-14T04:09:20.886Z,3.04
2018-03-14T04:09:56.322Z,3.44
2018-03-14T04:10:31.769Z,3.44
2018-03-14T04:11:07.210Z,4.16
2018-03-14T04:11:42.453Z,2.72
2018-03-14T04:12:17.844Z,2.80
2018-03-14T04:12:53.437Z,4.16
2018-03-14T04:13:29.196Z,2.40
2018-03-14T04:14:04.653Z,4.48
2018-03-14T04:14:40.149Z,3.84
2018-03-14T04:15:16.166Z,0.72
2018-03-14T04:15:54.207Z,1.04
2018-03-14T04:16:30.259Z,1.68
2018-03-14T04:17:05.880Z,0.56
2018-03-14T04:17:41.381Z,0.16
2018-03-14T04:18:16.645Z,1.68
2018-03-14T04:18:55.388Z,0.64
2018-03-14T04:19:30.881Z,0.48
2018-03-14T04:20:06.446Z,1.92
2018-03-14T04:20:41.788Z,1.44
2018-03-14T04:21:17.182Z,1.28
2018-03-14T04:21:52.908Z,1.28
2018-03-14T04:22:28.448Z,0.16
2018-03-14T04:23:05.395Z,0.72
2018-03-14T04:23:41.034Z,0.96
2018-03-14T04:24:16.680Z,0.96
2018-03-14T04:24:54.952Z,1.12
2018-03-14T04:25:30.895Z,2.00
2018-03-14T04:26:06.132Z,0.48
2018-03-14T04:26:42.179Z,0.16
2018-03-14T04:27:17.535Z,1.12
2018-03-14T04:27:52.782Z,0.32
2018-03-14T04:28:29.418Z,0.00
2018-03-14T04:29:04.547Z,1.12
2018-03-14T04:29:40.085Z,2.72
2018-03-14T04:30:15.663Z,3.68
2018-03-14T04:30:53.005Z,1.84
2018-03-14T04:31:28.454Z,0.08
2018-03-14T04:32:03.668Z,0.88
2018-03-14T04:32:39.130Z,2.56
2018-03-14T04:33:14.500Z,2.64
2018-03-14T04:33:49.823Z,1.84
2018-03-14T04:34:25.423Z,4.16
2018-03-14T04:35:00.680Z,0.88
2018-03-14T04:35:35.949Z,1.76
2018-03-14T04:36:11.518Z,1.76
2018-03-14T04:36:46.752Z,5.20
2018-03-14T04:37:22.109Z,2.64
2018-03-14T04:37:57.412Z,4.00
2018-03-14T04:38:34.243Z,2.24
2018-03-14T04:39:09.889Z,0.16
2018-03-14T04:39:45.451Z,1.04
2018-03-14T04:40:20.789Z,2.32
2018-03-14T04:40:57.443Z,4.48
2018-03-14T04:41:32.982Z,1.92
2018-03-14T04:42:08.547Z,1.36
2018-03-14T04:42:45.422Z,1.12
2018-03-14T04:43:20.917Z,0.80
2018-03-14T04:43:56.190Z,2.96
2018-03-14T04:44:31.941Z,2.16
2018-03-14T04:45:07.302Z,2.00
2018-03-14T04:45:42.325Z,2.96
2018-03-14T04:46:19.427Z,2.32
2018-03-14T04:46:54.842Z,3.28
2018-03-14T04:47:30.227Z,4.00
2018-03-14T04:48:06.454Z,2.64
2018-03-14T04:48:41.805Z,3.44
2018-03-14T04:49:17.024Z,0.96
2018-03-14T04:49:52.295Z,1.76
2018-03-14T04:50:28.044Z,0.64
2018-03-14T04:51:03.345Z,0.00
2018-03-14T04:51:38.800Z,2.72
2018-03-14T04:52:14.243Z,0.48
2018-03-14T04:52:50.910Z,0.56
2018-03-14T04:53:26.376Z,0.00
2018-03-14T04:54:01.541Z,0.08
2018-03-14T04:54:36.882Z,1.12
2018-03-14T04:55:12.104Z,1.36
2018-03-14T04:55:48.983Z,0.16
2018-03-14T04:56:24.470Z,1.52
2018-03-14T04:57:00.018Z,0.72
2018-03-14T04:57:35.423Z,0.88
2018-03-14T04:58:11.201Z,0.56
2018-03-14T04:58:46.511Z,0.48
2018-03-14T04:59:21.946Z,1.36
2018-03-14T04:59:57.175Z,0.72
2018-03-14T05:00:32.600Z,0.00
2018-03-14T05:01:11.694Z,0.00
2018-03-14T05:01:47.015Z,0.00
2018-03-14T05:02:22.408Z,1.44
2018-03-14T05:03:00.312Z,1.12
2018-03-14T05:03:36.079Z,1.76
2018-03-14T05:04:11.309Z,0.48
2018-03-14T05:04:48.234Z,0.00
2018-03-14T05:05:23.722Z,0.00
2018-03-14T05:06:00.190Z,0.96
2018-03-14T05:06:37.472Z,0.40
2018-03-14T05:07:12.795Z,0.80
2018-03-14T05:07:54.114Z,1.20
2018-03-14T05:08:29.550Z,3.68
2018-03-14T05:09:05.027Z,2.80
2018-03-14T05:09:40.525Z,2.08
2018-03-14T05:10:15.976Z,2.24
2018-03-14T05:10:54.744Z,3.76
2018-03-14T05:11:29.893Z,1.60
2018-03-14T05:12:05.427Z,2.24
2018-03-14T05:12:43.078Z,3.60
2018-03-14T05:13:18.531Z,2.48
2018-03-14T05:13:54.156Z,1.12
2018-03-14T05:14:29.490Z,3.44
2018-03-14T05:15:08.021Z,4.56
2018-03-14T05:15:43.365Z,2.08
2018-03-14T05:16:22.030Z,0.80
2018-03-14T05:16:59.596Z,4.08
2018-03-14T05:17:35.256Z,4.24
2018-03-14T05:18:13.916Z,2.48
2018-03-14T05:18:49.247Z,2.08
2018-03-14T05:19:24.570Z,1.60
2018-03-14T05:20:00.053Z,0.64
2018-03-14T05:20:35.866Z,0.88
2018-03-14T05:21:13.818Z,0.24
2018-03-14T05:21:50.768Z,2.24
2018-03-14T05:22:28.885Z,1.68
2018-03-14T05:23:06.298Z,0.88
2018-03-14T05:25:46.758Z,2.07
2018-03-14T05:28:27.451Z,0.19
2018-03-14T05:29:03.991Z,1.84
2018-03-14T05:29:40.714Z,2.00
2018-03-14T05:30:19.127Z,2.32
2018-03-14T05:30:54.806Z,2.00
2018-03-14T05:31:30.323Z,1.60
2018-03-14T05:32:05.748Z,3.60
2018-03-14T05:32:41.158Z,2.40
2018-03-14T05:33:17.008Z,0.16
2018-03-14T05:33:55.900Z,0.96
2018-03-14T05:34:31.549Z,1.20
2018-03-14T05:35:07.319Z,0.08
2018-03-14T05:35:43.059Z,1.36
2018-03-14T05:36:20.119Z,4.24
2018-03-14T05:36:55.573Z,4.56
2018-03-14T05:37:31.635Z,4.16
2018-03-14T05:38:07.162Z,3.20
2018-03-14T05:38:43.012Z,0.88
2018-03-14T05:39:18.324Z,2.40
2018-03-14T05:39:53.647Z,2.48
2018-03-14T05:40:30.087Z,2.80
2018-03-14T05:41:07.481Z,2.64
2018-03-14T05:41:45.519Z,0.00
2018-03-14T05:42:20.943Z,0.00
2018-03-14T05:42:59.212Z,0.32
2018-03-14T05:43:34.946Z,2.96
2018-03-14T05:44:12.614Z,3.36
2018-03-14T05:44:50.461Z,4.88
2018-03-14T05:45:28.780Z,1.52
2018-03-14T05:46:04.102Z,0.72
2018-03-14T05:46:39.738Z,0.16
2018-03-14T05:47:15.092Z,1.68
2018-03-14T05:47:50.566Z,1.20
2018-03-14T05:48:26.014Z,0.16
2018-03-14T05:49:01.010Z,0.00
2018-03-14T05:49:36.360Z,1.36
2018-03-14T05:50:12.302Z,2.00
2018-03-14T05:50:48.308Z,2.16
2018-03-14T05:51:23.777Z,3.12
2018-03-14T05:51:59.602Z,2.96
2018-03-14T05:52:34.977Z,0.40
2018-03-14T05:53:10.307Z,1.92
2018-03-14T05:53:45.780Z,2.56
2018-03-14T05:54:21.216Z,2.56
2018-03-14T05:54:56.692Z,0.88
2018-03-14T05:55:32.186Z,1.44
2018-03-14T05:56:07.695Z,0.88
2018-03-14T05:56:43.450Z,0.56
2018-03-14T05:57:18.872Z,0.96
2018-03-14T05:57:54.154Z,0.08
2018-03-14T05:58:29.479Z,0.16
2018-03-14T05:59:04.812Z,0.00
2018-03-14T05:59:40.192Z,0.00
2018-03-14T06:00:15.537Z,0.00
2018-03-14T06:00:51.076Z,0.00
2018-03-14T06:01:26.733Z,2.48
2018-03-14T06:02:02.186Z,1.76
2018-03-14T06:02:37.618Z,0.88
2018-03-14T06:03:13.069Z,0.56
2018-03-14T06:03:48.296Z,0.80
2018-03-14T06:04:23.674Z,1.20
2018-03-14T06:04:59.064Z,0.00
2018-03-14T06:05:34.409Z,0.00
2018-03-14T06:06:09.733Z,0.00
2018-03-14T06:06:45.270Z,0.00
2018-03-14T06:07:20.729Z,0.00
2018-03-14T06:07:56.622Z,0.00
2018-03-14T06:08:31.993Z,0.00
2018-03-14T06:09:07.396Z,0.00
2018-03-14T06:09:42.842Z,0.00
2018-03-14T06:10:18.354Z,0.00
2018-03-14T06:10:53.791Z,1.44
2018-03-14T06:11:29.329Z,0.40
2018-03-14T06:12:04.772Z,0.08
2018-03-14T06:12:40.089Z,1.36
2018-03-14T06:13:15.674Z,0.00
2018-03-14T06:13:51.168Z,0.00
2018-03-14T06:14:26.505Z,0.08
2018-03-14T06:15:01.830Z,0.96
2018-03-14T06:15:37.060Z,1.28
2018-03-14T06:16:12.439Z,0.08
2018-03-14T06:16:48.054Z,0.08
2018-03-14T06:17:23.441Z,0.00
2018-03-14T06:17:58.840Z,0.00
2018-03-14T06:18:34.285Z,0.00
2018-03-14T06:19:09.966Z,0.00
2018-03-14T06:19:45.442Z,0.08
2018-03-14T06:20:21.055Z,0.00
2018-03-14T06:20:56.426Z,0.00
2018-03-14T06:21:33.184Z,0.00
2018-03-14T06:22:11.848Z,0.00
2018-03-14T06:22:51.320Z,0.00
2018-03-14T06:23:26.756Z,0.00
2018-03-14T06:24:02.292Z,0.00
2018-03-14T06:24:37.777Z,0.00
2018-03-14T06:25:13.132Z,0.00
2018-03-14T06:25:52.196Z,0.00
2018-03-14T06:26:27.749Z,0.08
2018-03-14T06:27:03.196Z,1.76
2018-03-14T06:27:40.814Z,0.08
2018-03-14T06:28:16.126Z,0.00
2018-03-14T06:28:53.278Z,0.00
2018-03-14T06:29:28.735Z,0.00
2018-03-14T06:30:04.416Z,0.00
2018-03-14T06:30:43.894Z,0.00
2018-03-14T06:31:19.560Z,0.00
2018-03-14T06:31:59.370Z,0.00
2018-03-14T06:32:34.629Z,0.00
2018-03-14T06:33:09.925Z,0.00
2018-03-14T06:33:45.715Z,0.88
2018-03-14T06:34:21.555Z,0.64
2018-03-14T06:34:56.722Z,0.16
2018-03-14T06:35:32.053Z,0.08
2018-03-14T06:36:07.350Z,0.00
2018-03-14T06:36:42.883Z,0.00
2018-03-14T06:37:18.048Z,0.00
2018-03-14T06:37:53.464Z,0.00
2018-03-14T06:38:28.837Z,0.00
2018-03-14T06:39:04.202Z,0.00
2018-03-14T06:39:39.678Z,0.00
2018-03-14T06:40:15.780Z,0.16
2018-03-14T06:40:51.573Z,0.00
2018-03-14T06:41:27.061Z,0.08
2018-03-14T06:42:03.157Z,0.00
2018-03-14T06:42:41.201Z,0.00
2018-03-14T06:43:16.592Z,0.00
2018-03-14T06:43:52.126Z,0.00
2018-03-14T06:44:27.589Z,0.08
2018-03-14T06:45:03.540Z,1.52
2018-03-14T06:45:40.373Z,0.08
2018-03-14T06:46:15.574Z,0.00
2018-03-14T06:46:50.994Z,0.40
2018-03-14T06:47:26.268Z,1.68
2018-03-14T06:48:01.699Z,1.60
2018-03-14T06:48:37.268Z,1.44
2018-03-14T06:49:12.796Z,0.48
2018-03-14T06:49:48.547Z,0.48
2018-03-14T06:50:23.844Z,0.48
2018-03-14T06:50:59.287Z,3.20
2018-03-14T06:51:34.482Z,0.00
2018-03-14T06:52:09.765Z,0.48
2018-03-14T06:52:45.357Z,2.56
2018-03-14T06:53:20.600Z,0.24
2018-03-14T06:53:56.062Z,2.24
2018-03-14T06:54:31.720Z,1.28
2018-03-14T06:55:06.893Z,1.84
2018-03-14T06:55:42.515Z,2.40
2018-03-14T06:56:18.051Z,1.04
2018-03-14T06:56:53.705Z,1.68
2018-03-14T06:57:29.271Z,1.84
2018-03-14T06:58:04.585Z,0.88
2018-03-14T06:58:40.054Z,0.16
2018-03-14T06:59:15.691Z,0.16
2018-03-14T06:59:53.318Z,1.52
2018-03-14T07:00:28.723Z,1.60
2018-03-14T07:01:04.046Z,0.08
2018-03-14T07:01:40.306Z,1.12
2018-03-14T07:02:16.400Z,0.72
2018-03-14T07:02:53.188Z,1.52
2018-03-14T07:03:28.492Z,0.56
2018-03-14T07:04:06.082Z,1.44
2018-03-14T07:04:43.430Z,1.04
2018-03-14T07:07:57.916Z,0.06
2018-03-14T07:08:33.118Z,1.12
2018-03-14T07:09:08.551Z,0.00
2018-03-14T07:09:44.056Z,0.00
2018-03-14T07:10:19.519Z,0.00
2018-03-14T07:10:54.937Z,0.08
2018-03-14T07:11:30.075Z,0.64
2018-03-14T07:12:05.499Z,0.88
2018-03-14T07:12:42.856Z,0.16
2018-03-14T07:13:18.638Z,0.48
2018-03-14T07:13:53.949Z,1.60
2018-03-14T07:14:29.204Z,0.16
2018-03-14T07:15:04.497Z,1.20
2018-03-14T07:15:40.107Z,0.00
2018-03-14T07:16:15.436Z,0.00
2018-03-14T07:16:50.867Z,1.44
2018-03-14T07:17:26.078Z,4.72
2018-03-14T07:18:01.316Z,1.60
2018-03-14T07:18:36.567Z,0.08
2018-03-14T07:19:11.989Z,0.08
2018-03-14T07:19:47.535Z,1.84
2018-03-14T07:20:22.928Z,0.00
2018-03-14T07:20:58.073Z,0.24
2018-03-14T07:21:33.078Z,1.12
2018-03-14T07:22:08.412Z,0.08
2018-03-14T07:22:43.842Z,0.00
2018-03-14T07:23:19.223Z,0.56
2018-03-14T07:23:54.671Z,1.36
2018-03-14T07:24:30.146Z,2.16
2018-03-14T07:25:05.434Z,3.60
2018-03-14T07:25:41.323Z,1.60
2018-03-14T07:26:16.669Z,2.80
2018-03-14T07:26:52.197Z,2.24
2018-03-14T07:27:27.654Z,0.16
2018-03-14T07:28:03.178Z,0.64
2018-03-14T07:28:38.813Z,2.88
2018-03-14T07:29:14.120Z,1.76
2018-03-14T07:29:49.337Z,0.48
2018-03-14T07:30:24.786Z,0.96
2018-03-14T07:31:00.260Z,1.60
2018-03-14T07:31:35.837Z,2.56
2018-03-14T07:32:11.265Z,2.40
2018-03-14T07:32:46.587Z,0.80
2018-03-14T07:33:21.943Z,0.56
2018-03-14T07:33:57.073Z,0.08
2018-03-14T07:34:32.181Z,3.04
2018-03-14T07:35:07.596Z,2.88
2018-03-14T07:35:43.101Z,1.20
2018-03-14T07:36:18.469Z,0.72
2018-03-14T07:36:53.756Z,0.96
2018-03-14T07:37:29.141Z,3.36
2018-03-14T07:38:04.530Z,0.08
2018-03-14T07:38:40.303Z,0.08
2018-03-14T07:39:15.769Z,3.20
2018-03-14T07:39:50.935Z,0.48
2018-03-14T07:40:26.168Z,4.32
2018-03-14T07:41:01.268Z,0.32
2018-03-14T07:41:36.384Z,0.80
2018-03-14T07:42:12.309Z,1.28
2018-03-14T07:42:47.779Z,0.00
2018-03-14T07:43:23.280Z,0.00
2018-03-14T07:43:58.472Z,0.08
2018-03-14T07:44:33.824Z,0.00
2018-03-14T07:45:09.368Z,0.16
2018-03-14T07:45:44.802Z,2.48
2018-03-14T07:46:20.302Z,1.92
2018-03-14T07:46:55.764Z,2.08
2018-03-14T07:47:31.069Z,2.56
2018-03-14T07:48:06.431Z,1.92
2018-03-14T07:48:41.739Z,0.00
2018-03-14T07:49:16.984Z,0.00
2018-03-14T07:49:52.772Z,0.32
2018-03-14T07:50:28.598Z,0.56
2018-03-14T07:51:04.225Z,0.24
2018-03-14T07:51:39.348Z,0.08
2018-03-14T07:52:14.766Z,0.56
2018-03-14T07:52:49.965Z,0.72
2018-03-14T07:53:25.229Z,0.32
2018-03-14T07:54:00.434Z,1.76
2018-03-14T07:54:35.997Z,0.16
2018-03-14T07:55:11.312Z,0.00
2018-03-14T07:55:46.735Z,0.64
2018-03-14T07:56:22.070Z,0.80
2018-03-14T07:56:57.583Z,0.16
2018-03-14T07:57:33.011Z,0.96
2018-03-14T07:58:08.841Z,0.96
2018-03-14T07:58:45.404Z,0.32
2018-03-14T07:59:20.789Z,0.72
2018-03-14T07:59:56.242Z,0.00
2018-03-14T08:00:31.537Z,0.08
2018-03-14T08:01:07.664Z,0.00
2018-03-14T08:01:43.004Z,0.00